sensor_id;sensor_type;location;lat;lon;timestamp;pressure;altitude;pressure_sealevel;temperature;humidity
21203;BME280;10759;51.982;9.232;2024-03-07T00:00:18;101387.63;;;3.12;100.00
21203;BME280;10759;51.982;9.232;2024-03-07T00:02:50;101380.47;;;2.99;100.00
21203;BME280;10759;51.982;9.232;2024-03-07T00:05:20;101390.25;;;3.06;100.00
21203;BME280;10759;51.982;9.232;2024-03-07T00:07:51;101391.03;;;2.96;100.00
21203;BME280;10759;51.982;9.232;2024-03-07T00:10:19;101391.91;;;2.96;100.00
21203;BME280;10759;51.982;9.232;2024-03-07T00:12:49;101392.81;;;2.97;100.00
21203;BME280;10759;51.982;9.232;2024-03-07T00:15:17;101399.88;;;2.98;100.00
21203;BME280;10759;51.982;9.232;2024-03-07T00:17:45;101404.28;;;2.97;100.00
21203;BME280;10759;51.982;9.232;2024-03-07T00:20:13;101398.09;;;2.97;100.00
21203;BME280;10759;51.982;9.232;2024-03-07T00:22:47;101403.38;;;2.94;100.00
21203;BME280;10759;51.982;9.232;2024-03-07T00:25:15;101400.66;;;2.89;100.00
21203;BME280;10759;51.982;9.232;2024-03-07T00:27:47;101399.69;;;2.79;100.00
21203;BME280;10759;51.982;9.232;2024-03-07T00:30:17;101400.31;;;2.54;100.00
21203;BME280;10759;51.982;9.232;2024-03-07T00:32:46;101394.13;;;2.52;100.00
21203;BME280;10759;51.982;9.232;2024-03-07T00:35:15;101373.63;;;2.35;100.00
21203;BME280;10759;51.982;9.232;2024-03-07T00:37:43;101398.53;;;2.51;100.00
21203;BME280;10759;51.982;9.232;2024-03-07T00:40:12;101402.69;;;2.29;100.00
21203;BME280;10759;51.982;9.232;2024-03-07T00:42:40;101388.75;;;2.44;100.00
21203;BME280;10759;51.982;9.232;2024-03-07T00:45:08;101376.28;;;2.35;100.00
21203;BME280;10759;51.982;9.232;2024-03-07T00:47:37;101399.16;;;2.30;100.00
21203;BME280;10759;51.982;9.232;2024-03-07T00:50:07;101390.22;;;2.21;100.00
21203;BME280;10759;51.982;9.232;2024-03-07T00:52:36;101391.13;;;2.23;100.00
21203;BME280;10759;51.982;9.232;2024-03-07T00:55:05;101388.38;;;2.15;100.00
21203;BME280;10759;51.982;9.232;2024-03-07T00:57:35;101376.88;;;2.11;100.00
21203;BME280;10759;51.982;9.232;2024-03-07T01:00:03;101382.16;;;2.10;100.00
21203;BME280;10759;51.982;9.232;2024-03-07T01:02:32;101377.72;;;2.09;100.00
21203;BME280;10759;51.982;9.232;2024-03-07T01:05:02;101372.50;;;2.15;100.00
21203;BME280;10759;51.982;9.232;2024-03-07T01:07:35;101372.44;;;2.09;100.00
21203;BME280;10759;51.982;9.232;2024-03-07T01:10:04;101358.22;;;2.01;100.00
21203;BME280;10759;51.982;9.232;2024-03-07T01:12:32;101366.94;;;1.93;100.00
21203;BME280;10759;51.982;9.232;2024-03-07T01:15:02;101346.53;;;1.80;100.00
21203;BME280;10759;51.982;9.232;2024-03-07T01:17:32;101368.69;;;1.90;100.00
21203;BME280;10759;51.982;9.232;2024-03-07T01:20:01;101372.09;;;1.84;100.00
21203;BME280;10759;51.982;9.232;2024-03-07T01:22:29;101374.75;;;1.83;100.00
21203;BME280;10759;51.982;9.232;2024-03-07T01:24:57;101374.63;;;1.74;100.00
21203;BME280;10759;51.982;9.232;2024-03-07T01:27:25;101377.22;;;1.72;100.00
21203;BME280;10759;51.982;9.232;2024-03-07T01:29:54;101373.72;;;1.75;100.00
21203;BME280;10759;51.982;9.232;2024-03-07T01:32:22;101366.72;;;1.75;100.00
21203;BME280;10759;51.982;9.232;2024-03-07T01:34:50;101371.03;;;1.68;100.00
21203;BME280;10759;51.982;9.232;2024-03-07T01:37:19;101367.41;;;1.60;100.00
21203;BME280;10759;51.982;9.232;2024-03-07T01:39:47;101362.88;;;1.55;100.00
21203;BME280;10759;51.982;9.232;2024-03-07T01:42:15;101350.44;;;1.47;100.00
21203;BME280;10759;51.982;9.232;2024-03-07T01:44:43;101362.78;;;1.45;100.00
21203;BME280;10759;51.982;9.232;2024-03-07T01:47:12;101360.25;;;1.55;100.00
21203;BME280;10759;51.982;9.232;2024-03-07T01:49:41;101363.00;;;1.61;100.00
21203;BME280;10759;51.982;9.232;2024-03-07T01:52:09;101363.66;;;1.47;100.00
21203;BME280;10759;51.982;9.232;2024-03-07T01:54:39;101352.97;;;1.40;100.00
21203;BME280;10759;51.982;9.232;2024-03-07T01:57:08;101353.84;;;1.40;100.00
21203;BME280;10759;51.982;9.232;2024-03-07T01:59:37;101345.88;;;1.34;100.00
21203;BME280;10759;51.982;9.232;2024-03-07T02:02:05;101358.44;;;1.52;100.00
21203;BME280;10759;51.982;9.232;2024-03-07T02:04:33;101355.97;;;1.63;100.00
21203;BME280;10759;51.982;9.232;2024-03-07T02:07:01;101371.72;;;1.57;100.00
21203;BME280;10759;51.982;9.232;2024-03-07T02:09:29;101363.91;;;1.63;100.00
21203;BME280;10759;51.982;9.232;2024-03-07T02:11:58;101350.44;;;1.47;100.00
21203;BME280;10759;51.982;9.232;2024-03-07T02:14:26;101332.88;;;1.49;100.00
21203;BME280;10759;51.982;9.232;2024-03-07T02:16:56;101358.06;;;1.26;100.00
21203;BME280;10759;51.982;9.232;2024-03-07T02:19:24;101273.13;;;0.98;100.00
21203;BME280;10759;51.982;9.232;2024-03-07T02:21:54;101349.66;;;1.53;100.00
21203;BME280;10759;51.982;9.232;2024-03-07T02:24:21;101351.88;;;1.24;100.00
21203;BME280;10759;51.982;9.232;2024-03-07T02:26:50;101348.22;;;1.17;100.00
21203;BME280;10759;51.982;9.232;2024-03-07T02:29:18;101353.50;;;1.16;100.00
21203;BME280;10759;51.982;9.232;2024-03-07T02:31:47;101349.06;;;1.15;100.00
21203;BME280;10759;51.982;9.232;2024-03-07T02:34:15;101351.69;;;1.12;100.00
21203;BME280;10759;51.982;9.232;2024-03-07T02:36:43;101334.47;;;0.83;100.00
21203;BME280;10759;51.982;9.232;2024-03-07T02:39:12;101340.78;;;0.93;100.00
21203;BME280;10759;51.982;9.232;2024-03-07T02:41:41;101311.41;;;0.70;100.00
21203;BME280;10759;51.982;9.232;2024-03-07T02:44:09;101334.47;;;0.82;100.00
21203;BME280;10759;51.982;9.232;2024-03-07T02:46:39;101328.28;;;0.80;100.00
21203;BME280;10759;51.982;9.232;2024-03-07T02:49:07;101331.78;;;0.79;100.00
21203;BME280;10759;51.982;9.232;2024-03-07T02:51:35;101296.28;;;0.61;100.00
21203;BME280;10759;51.982;9.232;2024-03-07T02:54:03;101332.66;;;0.81;100.00
21203;BME280;10759;51.982;9.232;2024-03-07T02:56:33;101327.00;;;1.10;100.00
21203;BME280;10759;51.982;9.232;2024-03-07T02:59:02;101327.16;;;1.19;100.00
21203;BME280;10759;51.982;9.232;2024-03-07T03:01:30;101326.78;;;0.97;100.00
21203;BME280;10759;51.982;9.232;2024-03-07T03:03:58;101326.72;;;0.93;100.00
21203;BME280;10759;51.982;9.232;2024-03-07T03:06:26;101321.34;;;0.88;100.00
21203;BME280;10759;51.982;9.232;2024-03-07T03:08:54;101316.03;;;0.85;100.00
21203;BME280;10759;51.982;9.232;2024-03-07T03:11:22;101318.59;;;0.80;100.00
21203;BME280;10759;51.982;9.232;2024-03-07T03:13:53;101317.66;;;0.77;100.00
21203;BME280;10759;51.982;9.232;2024-03-07T03:16:22;101321.16;;;0.76;100.00
21203;BME280;10759;51.982;9.232;2024-03-07T03:19:10;101308.72;;;0.69;100.00
21203;BME280;10759;51.982;9.232;2024-03-07T03:21:38;101315.84;;;0.73;100.00
21203;BME280;10759;51.982;9.232;2024-03-07T03:24:06;101312.53;;;0.84;100.00
21203;BME280;10759;51.982;9.232;2024-03-07T03:26:34;101310.56;;;0.73;100.00
21203;BME280;10759;51.982;9.232;2024-03-07T03:29:04;101306.25;;;0.78;100.00
21203;BME280;10759;51.982;9.232;2024-03-07T03:31:32;101310.56;;;0.73;100.00
21203;BME280;10759;51.982;9.232;2024-03-07T03:34:00;101292.88;;;0.67;100.00
21203;BME280;10759;51.982;9.232;2024-03-07T03:36:29;101287.56;;;0.66;100.00
21203;BME280;10759;51.982;9.232;2024-03-07T03:38:57;101312.69;;;0.95;100.00
21203;BME280;10759;51.982;9.232;2024-03-07T03:41:25;101308.28;;;0.94;100.00
21203;BME280;10759;51.982;9.232;2024-03-07T03:43:53;101204.41;;;0.36;100.00
21203;BME280;10759;51.982;9.232;2024-03-07T03:46:24;101315.63;;;1.14;100.00
21203;BME280;10759;51.982;9.232;2024-03-07T03:48:52;101311.13;;;1.06;100.00
21203;BME280;10759;51.982;9.232;2024-03-07T03:51:20;101315.03;;;1.35;100.00
21203;BME280;10759;51.982;9.232;2024-03-07T03:53:48;101313.09;;;1.21;100.00
21203;BME280;10759;51.982;9.232;2024-03-07T03:56:18;101305.22;;;1.24;100.00
21203;BME280;10759;51.982;9.232;2024-03-07T03:58:46;101314.06;;;1.26;100.00
21203;BME280;10759;51.982;9.232;2024-03-07T04:01:15;101309.66;;;1.27;100.00
21203;BME280;10759;51.982;9.232;2024-03-07T04:03:45;101308.00;;;1.34;100.00
21203;BME280;10759;51.982;9.232;2024-03-07T04:06:14;101309.75;;;1.33;100.00
21203;BME280;10759;51.982;9.232;2024-03-07T04:08:42;101302.91;;;1.46;100.00
21203;BME280;10759;51.982;9.232;2024-03-07T04:11:10;101296.06;;;1.65;100.00
21203;BME280;10759;51.982;9.232;2024-03-07T04:13:38;101291.00;;;1.80;100.00
21203;BME280;10759;51.982;9.232;2024-03-07T04:16:06;101297.09;;;1.75;100.00
21203;BME280;10759;51.982;9.232;2024-03-07T04:18:35;101260.09;;;1.09;100.00
21203;BME280;10759;51.982;9.232;2024-03-07T04:21:04;101309.75;;;1.33;100.00
21203;BME280;10759;51.982;9.232;2024-03-07T04:23:34;101310.81;;;1.46;100.00
21203;BME280;10759;51.982;9.232;2024-03-07T04:26:02;101301.28;;;1.59;100.00
21203;BME280;10759;51.982;9.232;2024-03-07T04:28:30;101300.66;;;1.75;100.00
21203;BME280;10759;51.982;9.232;2024-03-07T04:30:59;101290.91;;;1.74;100.00
21203;BME280;10759;51.982;9.232;2024-03-07T04:33:27;101290.91;;;1.74;100.00
21203;BME280;10759;51.982;9.232;2024-03-07T04:35:55;101294.56;;;1.84;100.00
21203;BME280;10759;51.982;9.232;2024-03-07T04:38:24;101295.44;;;1.83;100.00
21203;BME280;10759;51.982;9.232;2024-03-07T04:40:54;101236.03;;;1.52;100.00
21203;BME280;10759;51.982;9.232;2024-03-07T04:43:23;101293.72;;;1.85;100.00
21203;BME280;10759;51.982;9.232;2024-03-07T04:45:52;101285.81;;;1.89;100.00
21203;BME280;10759;51.982;9.232;2024-03-07T04:48:22;101289.50;;;2.02;100.00
21203;BME280;10759;51.982;9.232;2024-03-07T04:50:50;101287.63;;;1.93;100.00
21203;BME280;10759;51.982;9.232;2024-03-07T04:53:18;101188.47;;;1.52;100.00
21203;BME280;10759;51.982;9.232;2024-03-07T04:55:48;101279.72;;;1.92;100.00
21203;BME280;10759;51.982;9.232;2024-03-07T04:58:15;101297.38;;;1.95;100.00
21203;BME280;10759;51.982;9.232;2024-03-07T05:00:44;101302.66;;;1.99;100.00
21203;BME280;10759;51.982;9.232;2024-03-07T05:03:11;101308.59;;;1.78;100.00
21203;BME280;10759;51.982;9.232;2024-03-07T05:05:39;101295.34;;;1.77;100.00
21203;BME280;10759;51.982;9.232;2024-03-07T05:08:08;101296.31;;;1.80;100.00
21203;BME280;10759;51.982;9.232;2024-03-07T05:10:37;101305.13;;;1.81;100.00
21203;BME280;10759;51.982;9.232;2024-03-07T05:13:06;101305.16;;;1.87;100.00
21203;BME280;10759;51.982;9.232;2024-03-07T05:15:34;101301.50;;;1.74;100.00
21203;BME280;10759;51.982;9.232;2024-03-07T05:18:06;101296.19;;;1.71;100.00
21203;BME280;10759;51.982;9.232;2024-03-07T05:20:34;101298.91;;;1.79;100.00
21203;BME280;10759;51.982;9.232;2024-03-07T05:23:02;101226.97;;;1.31;100.00
21203;BME280;10759;51.982;9.232;2024-03-07T05:25:32;101297.00;;;1.65;100.00
21203;BME280;10759;51.982;9.232;2024-03-07T05:27:59;101297.03;;;1.68;100.00
21203;BME280;10759;51.982;9.232;2024-03-07T05:30:30;101296.19;;;1.71;100.00
21203;BME280;10759;51.982;9.232;2024-03-07T05:32:59;101300.59;;;1.70;100.00
21203;BME280;10759;51.982;9.232;2024-03-07T05:35:29;101294.47;;;1.76;100.00
21203;BME280;10759;51.982;9.232;2024-03-07T05:37:57;101285.50;;;1.65;100.00
21203;BME280;10759;51.982;9.232;2024-03-07T05:40:26;101299.56;;;1.61;100.00
21203;BME280;10759;51.982;9.232;2024-03-07T05:42:54;101305.69;;;1.58;100.00
21203;BME280;10759;51.982;9.232;2024-03-07T05:45:23;101304.00;;;1.63;100.00
21203;BME280;10759;51.982;9.232;2024-03-07T05:47:52;101310.28;;;1.71;100.00
21203;BME280;10759;51.982;9.232;2024-03-07T05:50:20;101309.47;;;1.79;100.00
21203;BME280;10759;51.982;9.232;2024-03-07T05:52:48;101305.22;;;1.90;100.00
21203;BME280;10759;51.982;9.232;2024-03-07T05:55:16;101288.66;;;2.06;100.00
21203;BME280;10759;51.982;9.232;2024-03-07T05:57:46;101302.88;;;2.16;100.00
21203;BME280;10759;51.982;9.232;2024-03-07T06:00:15;101309.91;;;2.12;100.00
21203;BME280;10759;51.982;9.232;2024-03-07T06:02:56;101300.41;;;2.31;100.00
21203;BME280;10759;51.982;9.232;2024-03-07T06:05:24;101306.50;;;2.24;100.00
21203;BME280;10759;51.982;9.232;2024-03-07T06:07:53;101294.41;;;2.46;100.00
21203;BME280;10759;51.982;9.232;2024-03-07T06:10:23;101295.28;;;2.47;100.00
21203;BME280;10759;51.982;9.232;2024-03-07T06:12:52;101302.47;;;2.62;100.00
21203;BME280;10759;51.982;9.232;2024-03-07T06:15:36;101299.75;;;2.54;100.00
21203;BME280;10759;51.982;9.232;2024-03-07T06:18:06;101304.06;;;2.44;100.00
21203;BME280;10759;51.982;9.232;2024-03-07T06:20:35;101307.59;;;2.45;100.00
21203;BME280;10759;51.982;9.232;2024-03-07T06:23:03;101296.84;;;2.28;100.00
21203;BME280;10759;51.982;9.232;2024-03-07T06:25:32;101309.34;;;2.46;100.00
21203;BME280;10759;51.982;9.232;2024-03-07T06:28:05;101318.06;;;2.35;100.00
21203;BME280;10759;51.982;9.232;2024-03-07T06:30:38;101319.03;;;2.42;100.00
21203;BME280;10759;51.982;9.232;2024-03-07T06:33:08;101331.44;;;2.48;100.00
21203;BME280;10759;51.982;9.232;2024-03-07T06:35:37;101322.56;;;2.43;100.00
21203;BME280;10759;51.982;9.232;2024-03-07T06:38:06;101327.94;;;2.50;100.00
21203;BME280;10759;51.982;9.232;2024-03-07T06:40:35;101285.59;;;2.49;100.00
21203;BME280;10759;51.982;9.232;2024-03-07T06:43:03;101283.72;;;2.40;100.00
21203;BME280;10759;51.982;9.232;2024-03-07T06:45:33;101325.47;;;2.69;100.00
21203;BME280;10759;51.982;9.232;2024-03-07T06:48:02;101328.00;;;2.56;100.00
21203;BME280;10759;51.982;9.232;2024-03-07T06:50:32;101338.59;;;2.56;100.00
21203;BME280;10759;51.982;9.232;2024-03-07T06:53:05;101329.16;;;2.86;100.00
21203;BME280;10759;51.982;9.232;2024-03-07T06:55:35;101304.50;;;2.95;100.00
21203;BME280;10759;51.982;9.232;2024-03-07T06:58:04;101334.72;;;3.21;100.00
21203;BME280;10759;51.982;9.232;2024-03-07T07:00:32;101335.75;;;3.42;100.00
21203;BME280;10759;51.982;9.232;2024-03-07T07:03:04;101333.03;;;3.28;100.00
21203;BME280;10759;51.982;9.232;2024-03-07T07:05:34;101339.28;;;3.38;100.00
21203;BME280;10759;51.982;9.232;2024-03-07T07:08:03;101328.59;;;3.29;100.00
21203;BME280;10759;51.982;9.232;2024-03-07T07:10:33;101326.78;;;3.25;100.00
21203;BME280;10759;51.982;9.232;2024-03-07T07:13:03;101334.81;;;3.34;100.00
21203;BME280;10759;51.982;9.232;2024-03-07T07:15:31;101329.53;;;3.34;100.00
21203;BME280;10759;51.982;9.232;2024-03-07T07:18:00;101309.00;;;3.05;100.00
21203;BME280;10759;51.982;9.232;2024-03-07T07:20:29;101326.78;;;3.21;100.00
21203;BME280;10759;51.982;9.232;2024-03-07T07:22:57;101337.34;;;3.17;100.00
21203;BME280;10759;51.982;9.232;2024-03-07T07:25:27;101327.59;;;3.14;100.00
21203;BME280;10759;51.982;9.232;2024-03-07T07:27:55;101329.41;;;3.17;100.00
21203;BME280;10759;51.982;9.232;2024-03-07T07:30:24;101331.22;;;3.22;100.00
21203;BME280;10759;51.982;9.232;2024-03-07T07:32:53;101334.88;;;3.41;100.00
21203;BME280;10759;51.982;9.232;2024-03-07T07:35:22;101328.59;;;3.26;100.00
21203;BME280;10759;51.982;9.232;2024-03-07T07:37:51;101331.19;;;3.19;100.00
21203;BME280;10759;51.982;9.232;2024-03-07T07:40:22;101321.38;;;3.03;100.00
21203;BME280;10759;51.982;9.232;2024-03-07T07:42:52;101326.69;;;3.08;100.00
21203;BME280;10759;51.982;9.232;2024-03-07T07:45:22;101325.81;;;3.09;100.00
21203;BME280;10759;51.982;9.232;2024-03-07T07:47:52;101327.56;;;3.10;100.00
21203;BME280;10759;51.982;9.232;2024-03-07T07:50:22;101323.97;;;2.98;100.00
21203;BME280;10759;51.982;9.232;2024-03-07T07:52:51;101262.84;;;2.72;100.00
21203;BME280;10759;51.982;9.232;2024-03-07T07:55:22;101291.50;;;3.27;100.00
21203;BME280;10759;51.982;9.232;2024-03-07T07:57:52;101310.03;;;3.26;100.00
21203;BME280;10759;51.982;9.232;2024-03-07T08:00:21;101307.41;;;3.29;100.00
21203;BME280;10759;51.982;9.232;2024-03-07T08:02:51;101321.56;;;3.34;100.00
21203;BME280;10759;51.982;9.232;2024-03-07T08:05:20;101302.06;;;3.24;100.00
21203;BME280;10759;51.982;9.232;2024-03-07T08:07:50;101325.16;;;3.37;100.00
21203;BME280;10759;51.982;9.232;2024-03-07T08:10:19;101306.44;;;3.17;100.00
21203;BME280;10759;51.982;9.232;2024-03-07T08:12:49;101313.56;;;3.25;100.00
21203;BME280;10759;51.982;9.232;2024-03-07T08:15:17;101267.56;;;3.10;100.00
21203;BME280;10759;51.982;9.232;2024-03-07T08:17:47;101309.16;;;3.23;100.00
21203;BME280;10759;51.982;9.232;2024-03-07T08:20:16;101298.53;;;3.23;100.00
21203;BME280;10759;51.982;9.232;2024-03-07T08:22:45;101305.63;;;3.23;100.00
21203;BME280;10759;51.982;9.232;2024-03-07T08:25:14;101257.84;;;3.11;100.00
21203;BME280;10759;51.982;9.232;2024-03-07T08:27:45;101304.81;;;3.38;100.00
21203;BME280;10759;51.982;9.232;2024-03-07T08:30:15;101305.75;;;3.43;100.00
21203;BME280;10759;51.982;9.232;2024-03-07T08:32:44;101298.78;;;3.63;100.00
21203;BME280;10759;51.982;9.232;2024-03-07T08:35:12;101297.81;;;3.46;100.00
21203;BME280;10759;51.982;9.232;2024-03-07T08:37:41;101259.69;;;3.27;100.00
21203;BME280;10759;51.982;9.232;2024-03-07T08:40:11;101308.53;;;3.71;100.00
21203;BME280;10759;51.982;9.232;2024-03-07T08:42:46;101214.59;;;3.10;100.00
21203;BME280;10759;51.982;9.232;2024-03-07T08:45:17;101306.72;;;3.66;100.00
21203;BME280;10759;51.982;9.232;2024-03-07T08:47:46;101299.63;;;3.56;100.00
21203;BME280;10759;51.982;9.232;2024-03-07T08:50:15;101298.75;;;3.57;100.00
21203;BME280;10759;51.982;9.232;2024-03-07T08:52:45;101257.00;;;3.16;100.00
21203;BME280;10759;51.982;9.232;2024-03-07T08:55:15;101296.13;;;3.62;100.00
21203;BME280;10759;51.982;9.232;2024-03-07T08:57:44;101282.91;;;3.71;100.00
21203;BME280;10759;51.982;9.232;2024-03-07T09:00:14;101302.38;;;3.72;100.00
21203;BME280;10759;51.982;9.232;2024-03-07T09:02:51;101287.34;;;3.81;100.00
21203;BME280;10759;51.982;9.232;2024-03-07T09:05:20;101292.69;;;3.80;100.00
21203;BME280;10759;51.982;9.232;2024-03-07T09:07:50;101293.47;;;3.62;100.00
21203;BME280;10759;51.982;9.232;2024-03-07T09:10:19;101282.91;;;3.76;100.00
21203;BME280;10759;51.982;9.232;2024-03-07T09:12:51;101269.59;;;3.60;100.00
21203;BME280;10759;51.982;9.232;2024-03-07T09:15:21;101286.44;;;3.76;100.00
21203;BME280;10759;51.982;9.232;2024-03-07T09:17:52;101291.84;;;3.92;100.00
21203;BME280;10759;51.982;9.232;2024-03-07T09:20:20;101279.31;;;3.61;100.00
21203;BME280;10759;51.982;9.232;2024-03-07T09:22:50;101292.69;;;3.80;100.00
21203;BME280;10759;51.982;9.232;2024-03-07T09:25:21;101286.47;;;3.78;100.00
21203;BME280;10759;51.982;9.232;2024-03-07T09:27:51;101285.56;;;3.76;100.00
21203;BME280;10759;51.982;9.232;2024-03-07T09:30:19;101285.56;;;3.76;100.00
21203;BME280;10759;51.982;9.232;2024-03-07T09:32:53;101293.50;;;3.71;100.00
21203;BME280;10759;51.982;9.232;2024-03-07T09:35:22;101292.63;;;3.68;100.00
21203;BME280;10759;51.982;9.232;2024-03-07T09:37:50;101292.63;;;3.71;100.00
21203;BME280;10759;51.982;9.232;2024-03-07T09:40:19;101295.34;;;3.86;100.00
21203;BME280;10759;51.982;9.232;2024-03-07T09:42:52;101282.16;;;4.04;100.00
21203;BME280;10759;51.982;9.232;2024-03-07T09:45:23;101290.09;;;4.00;100.00
21203;BME280;10759;51.982;9.232;2024-03-07T09:47:57;101294.47;;;3.96;100.00
21203;BME280;10759;51.982;9.232;2024-03-07T09:50:26;101298.03;;;3.95;100.00
21203;BME280;10759;51.982;9.232;2024-03-07T09:52:58;101293.59;;;3.93;100.00
21203;BME280;10759;51.982;9.232;2024-03-07T09:55:27;101296.22;;;3.80;100.00
21203;BME280;10759;51.982;9.232;2024-03-07T09:57:58;101285.63;;;3.85;100.00
21203;BME280;10759;51.982;9.232;2024-03-07T10:00:28;101267.03;;;3.79;100.00
21203;BME280;10759;51.982;9.232;2024-03-07T10:03:05;101296.25;;;3.91;100.00
21203;BME280;10759;51.982;9.232;2024-03-07T10:05:34;101266.19;;;3.92;100.00
21203;BME280;10759;51.982;9.232;2024-03-07T10:08:04;101296.28;;;4.03;100.00
21203;BME280;10759;51.982;9.232;2024-03-07T10:10:33;101250.31;;;3.97;100.00
21203;BME280;10759;51.982;9.232;2024-03-07T10:13:02;101214.91;;;3.87;100.00
21203;BME280;10759;51.982;9.232;2024-03-07T10:15:32;101291.97;;;4.50;100.00
21203;BME280;10759;51.982;9.232;2024-03-07T10:18:06;101288.44;;;4.46;100.00
21203;BME280;10759;51.982;9.232;2024-03-07T10:20:34;101292.00;;;4.51;100.00
21203;BME280;10759;51.982;9.232;2024-03-07T10:23:06;101292.00;;;4.64;100.00
21203;BME280;10759;51.982;9.232;2024-03-07T10:25:35;101288.47;;;4.48;100.00
21203;BME280;10759;51.982;9.232;2024-03-07T10:28:04;101289.31;;;4.44;100.00
21203;BME280;10759;51.982;9.232;2024-03-07T10:30:39;101292.91;;;4.78;100.00
21203;BME280;10759;51.982;9.232;2024-03-07T10:33:09;101297.31;;;4.99;100.00
21203;BME280;10759;51.982;9.232;2024-03-07T10:35:38;101298.16;;;5.33;100.00
21203;BME280;10759;51.982;9.232;2024-03-07T10:38:06;101259.22;;;5.11;100.00
21203;BME280;10759;51.982;9.232;2024-03-07T10:40:41;101298.16;;;5.33;100.00
21203;BME280;10759;51.982;9.232;2024-03-07T10:43:11;101295.53;;;5.32;100.00
21203;BME280;10759;51.982;9.232;2024-03-07T10:45:44;101276.00;;;5.37;100.00
21203;BME280;10759;51.982;9.232;2024-03-07T10:48:17;101292.78;;;5.64;100.00
21203;BME280;10759;51.982;9.232;2024-03-07T10:50:57;101284.84;;;5.50;100.00
21203;BME280;10759;51.982;9.232;2024-03-07T10:53:39;101292.81;;;5.52;100.00
21203;BME280;10759;51.982;9.232;2024-03-07T10:56:23;101291.00;;;5.66;100.00
21203;BME280;10759;51.982;9.232;2024-03-07T10:58:58;101290.97;;;5.72;100.00
21203;BME280;10759;51.982;9.232;2024-03-07T11:01:31;101244.88;;;5.76;100.00
21203;BME280;10759;51.982;9.232;2024-03-07T11:04:02;101283.69;;;6.23;100.00
21203;BME280;10759;51.982;9.232;2024-03-07T11:06:32;101277.34;;;6.41;100.00
21203;BME280;10759;51.982;9.232;2024-03-07T11:09:03;101265.97;;;6.15;100.00
21203;BME280;10759;51.982;9.232;2024-03-07T11:11:38;101268.44;;;6.47;100.00
21203;BME280;10759;51.982;9.232;2024-03-07T11:14:08;101261.34;;;6.48;100.00
21203;BME280;10759;51.982;9.232;2024-03-07T11:16:38;101269.22;;;6.61;100.00
21203;BME280;10759;51.982;9.232;2024-03-07T11:19:24;101258.56;;;6.61;100.00
21203;BME280;10759;51.982;9.232;2024-03-07T11:21:55;101256.81;;;6.60;100.00
21203;BME280;10759;51.982;9.232;2024-03-07T11:24:24;101239.41;;;7.18;100.00
21203;BME280;10759;51.982;9.232;2024-03-07T11:26:53;101239.16;;;7.41;100.00
21203;BME280;10759;51.982;9.232;2024-03-07T11:29:41;101235.03;;;7.13;100.00
21203;BME280;10759;51.982;9.232;2024-03-07T11:32:11;101260.47;;;6.44;100.00
21203;BME280;10759;51.982;9.232;2024-03-07T11:34:43;101216.97;;;6.42;100.00
21203;BME280;10759;51.982;9.232;2024-03-07T11:37:17;101251.44;;;6.63;100.00
21203;BME280;10759;51.982;9.232;2024-03-07T11:39:50;101158.59;;;6.17;100.00
21203;BME280;10759;51.982;9.232;2024-03-07T11:42:24;101218.75;;;6.48;100.00
21203;BME280;10759;51.982;9.232;2024-03-07T11:44:58;101240.75;;;6.66;100.00
21203;BME280;10759;51.982;9.232;2024-03-07T11:47:34;101238.88;;;6.81;100.00
21203;BME280;10759;51.982;9.232;2024-03-07T11:50:07;101229.00;;;6.89;100.00
21203;BME280;10759;51.982;9.232;2024-03-07T11:52:39;101233.13;;;7.24;100.00
21203;BME280;10759;51.982;9.232;2024-03-07T11:55:11;101241.00;;;7.33;100.00
21203;BME280;10759;51.982;9.232;2024-03-07T11:57:39;101230.31;;;7.38;100.00
21203;BME280;10759;51.982;9.232;2024-03-07T12:00:11;101233.28;;;7.12;100.00
21203;BME280;10759;51.982;9.232;2024-03-07T12:02:41;101224.72;;;6.76;100.00
21203;BME280;10759;51.982;9.232;2024-03-07T12:05:11;101222.72;;;6.99;100.00
21203;BME280;10759;51.982;9.232;2024-03-07T12:07:43;101210.13;;;7.14;100.00
21203;BME280;10759;51.982;9.232;2024-03-07T12:10:11;101217.47;;;6.90;100.00
21203;BME280;10759;51.982;9.232;2024-03-07T12:12:40;101215.88;;;6.69;100.00
21203;BME280;10759;51.982;9.232;2024-03-07T12:15:09;101205.97;;;6.85;100.00
21203;BME280;10759;51.982;9.232;2024-03-07T12:17:47;101162.19;;;7.10;100.00
21203;BME280;10759;51.982;9.232;2024-03-07T12:20:18;101213.81;;;7.00;100.00
21203;BME280;10759;51.982;9.232;2024-03-07T12:22:57;101194.38;;;6.89;100.00
21203;BME280;10759;51.982;9.232;2024-03-07T12:25:28;101197.69;;;7.13;100.00
21203;BME280;10759;51.982;9.232;2024-03-07T12:28:01;101189.47;;;7.32;100.00
21203;BME280;10759;51.982;9.232;2024-03-07T12:30:33;101186.28;;;7.00;100.00
21203;BME280;10759;51.982;9.232;2024-03-07T12:33:02;101174.75;;;6.98;100.00
21203;BME280;10759;51.982;9.232;2024-03-07T12:35:35;101178.72;;;7.40;100.00
21203;BME280;10759;51.982;9.232;2024-03-07T12:38:04;101180.41;;;7.49;100.00
21203;BME280;10759;51.982;9.232;2024-03-07T12:40:31;101174.44;;;7.25;100.00
21203;BME280;10759;51.982;9.232;2024-03-07T12:43:01;101165.44;;;7.37;100.00
21203;BME280;10759;51.982;9.232;2024-03-07T12:45:30;101163.47;;;7.50;100.00
21203;BME280;10759;51.982;9.232;2024-03-07T12:48:00;101178.81;;;7.34;100.00
21203;BME280;10759;51.982;9.232;2024-03-07T12:50:32;101162.69;;;7.43;100.00
21203;BME280;10759;51.982;9.232;2024-03-07T12:53:05;101163.56;;;7.44;100.00
21203;BME280;10759;51.982;9.232;2024-03-07T12:55:38;101163.63;;;7.39;100.00
21203;BME280;10759;51.982;9.232;2024-03-07T12:58:08;101124.66;;;7.29;100.00
21203;BME280;10759;51.982;9.232;2024-03-07T13:00:38;101152.97;;;7.39;100.00
21203;BME280;10759;51.982;9.232;2024-03-07T13:03:08;101081.28;;;7.16;100.00